createdAt,value
2019-02-10T00:02:25.649Z,13.57
2019-02-10T00:05:29.217Z,13.70
2019-02-10T00:08:33.120Z,13.80
2019-02-10T00:11:36.938Z,12.67
2019-02-10T00:14:40.572Z,12.90
2019-02-10T00:17:44.471Z,12.97
2019-02-10T00:20:48.048Z,12.60
2019-02-10T00:23:51.890Z,12.57
2019-02-10T00:26:55.803Z,12.50
2019-02-10T00:29:59.827Z,11.67
2019-02-10T00:33:03.378Z,11.47
2019-02-10T00:36:06.948Z,11.53
2019-02-10T00:39:11.045Z,12.20
2019-02-10T00:42:14.930Z,11.00
2019-02-10T00:45:18.479Z,10.70
2019-02-10T00:48:22.044Z,10.03
2019-02-10T00:51:25.945Z,10.90
2019-02-10T00:54:29.749Z,10.13
2019-02-10T00:57:33.665Z,10.40
2019-02-10T01:00:37.224Z,10.10
2019-02-10T01:03:40.801Z,10.07
2019-02-10T01:06:44.991Z,10.53
2019-02-10T01:09:48.848Z,9.67
2019-02-10T01:12:52.780Z,10.50
2019-02-10T01:15:56.880Z,9.80
2019-02-10T01:19:10.512Z,8.80
2019-02-10T01:22:14.053Z,9.87
2019-02-10T01:25:17.887Z,8.93
2019-02-10T01:28:21.428Z,8.93
2019-02-10T01:31:25.307Z,8.43
2019-02-10T01:34:28.858Z,8.73
2019-02-10T01:37:32.701Z,7.97
2019-02-10T01:40:36.839Z,7.30
2019-02-10T01:43:40.464Z,6.77
2019-02-10T01:46:44.405Z,6.03
2019-02-10T01:49:48.021Z,6.17
2019-02-10T01:52:51.564Z,6.13
2019-02-10T01:55:55.382Z,6.33
2019-02-10T01:58:58.939Z,5.33
2019-02-10T02:02:02.531Z,5.73
2019-02-10T02:05:07.225Z,5.27
2019-02-10T02:08:10.789Z,5.17
2019-02-10T02:11:14.593Z,5.60
2019-02-10T02:14:18.168Z,5.63
2019-02-10T02:17:21.708Z,4.73
2019-02-10T02:20:25.247Z,5.33
2019-02-10T02:23:28.832Z,4.60
2019-02-10T02:26:32.724Z,5.03
2019-02-10T02:29:36.269Z,4.60
2019-02-10T02:32:40.118Z,5.10
2019-02-10T02:35:44.267Z,4.53
2019-02-10T02:38:48.090Z,4.30
2019-02-10T02:41:51.770Z,4.47
2019-02-10T02:44:55.346Z,4.67
2019-02-10T02:47:58.910Z,4.50
2019-02-10T02:51:02.486Z,4.67
2019-02-10T02:54:06.605Z,4.53
2019-02-10T02:57:10.723Z,4.33
2019-02-10T03:00:14.280Z,4.60
2019-02-10T03:03:17.860Z,4.30
2019-02-10T03:06:21.754Z,4.10
2019-02-10T03:09:25.648Z,4.30
2019-02-10T03:12:29.232Z,4.37
2019-02-10T03:15:32.814Z,4.00
2019-02-10T03:18:36.887Z,4.10
2019-02-10T03:21:40.452Z,4.30
2019-02-10T03:24:44.023Z,3.60
2019-02-10T03:27:47.849Z,3.97
2019-02-10T03:30:51.748Z,3.70
2019-02-10T03:33:55.288Z,3.90
2019-02-10T03:36:58.940Z,3.73
2019-02-10T03:40:03.155Z,4.17
2019-02-10T03:43:07.045Z,3.83
2019-02-10T03:46:10.616Z,3.73
2019-02-10T03:49:14.219Z,3.63
2019-02-10T03:52:18.601Z,3.30
2019-02-10T03:55:22.500Z,3.60
2019-02-10T03:58:26.095Z,3.83
2019-02-10T04:01:30.117Z,3.60
2019-02-10T04:04:33.677Z,3.43
2019-02-10T04:07:37.531Z,3.53
2019-02-10T04:10:41.433Z,3.03
2019-02-10T04:13:45.312Z,3.13
2019-02-10T04:16:49.260Z,3.70
2019-02-10T04:19:53.140Z,3.40
2019-02-10T04:22:56.707Z,3.30
2019-02-10T04:26:00.296Z,3.37
2019-02-10T04:29:03.846Z,3.10
2019-02-10T04:32:07.531Z,3.30
2019-02-10T04:35:11.084Z,2.97
2019-02-10T04:38:14.662Z,3.23
2019-02-10T04:41:18.222Z,2.97
2019-02-10T04:44:22.121Z,3.20
2019-02-10T04:47:25.703Z,2.77
2019-02-10T04:50:29.599Z,3.07
2019-02-10T04:53:33.847Z,3.00
2019-02-10T04:56:37.763Z,3.10
2019-02-10T04:59:41.789Z,2.67
2019-02-10T05:02:45.405Z,2.90
2019-02-10T05:05:48.990Z,3.03
2019-02-10T05:08:52.580Z,3.20
2019-02-10T05:11:56.113Z,2.80
2019-02-10T05:14:59.994Z,3.07
2019-02-10T05:18:04.009Z,2.90
2019-02-10T05:21:07.583Z,2.50
2019-02-10T05:24:11.162Z,2.30
2019-02-10T05:27:15.019Z,2.70
2019-02-10T05:30:18.580Z,2.87
2019-02-10T05:33:22.176Z,3.00
2019-02-10T05:36:26.032Z,2.70
2019-02-10T05:39:29.935Z,2.60
2019-02-10T05:42:33.497Z,2.50
2019-02-10T05:45:37.088Z,2.90
2019-02-10T05:48:40.667Z,2.87
2019-02-10T05:51:44.239Z,2.80
2019-02-10T05:54:48.350Z,2.67
2019-02-10T05:57:52.323Z,2.70
2019-02-10T06:01:16.729Z,3.00
2019-02-10T06:04:20.330Z,2.60
2019-02-10T06:07:23.969Z,2.47
2019-02-10T06:10:27.562Z,2.50
2019-02-10T06:13:31.445Z,2.30
2019-02-10T06:16:35.320Z,2.43
2019-02-10T06:19:39.013Z,2.23
2019-02-10T06:22:42.554Z,2.67
2019-02-10T06:25:46.115Z,2.57
2019-02-10T06:28:50.065Z,2.50
2019-02-10T06:31:53.962Z,2.43
2019-02-10T06:34:58.123Z,2.10
2019-02-10T06:38:02.263Z,2.70
2019-02-10T06:41:06.163Z,2.60
2019-02-10T06:44:09.971Z,2.40
2019-02-10T06:47:13.873Z,2.40
2019-02-10T06:50:17.431Z,2.47
2019-02-10T06:53:21.676Z,2.73
2019-02-10T06:56:25.216Z,2.37
2019-02-10T06:59:40.768Z,2.40
2019-02-10T07:03:23.879Z,2.57
2019-02-10T07:06:27.868Z,2.37
2019-02-10T07:09:31.442Z,1.87
2019-02-10T07:12:49.079Z,2.20
2019-02-10T07:16:28.858Z,2.20
2019-02-10T07:20:16.709Z,2.50
2019-02-10T07:23:54.892Z,2.10
2019-02-10T07:27:01.964Z,2.17
2019-02-10T07:30:37.625Z,2.23
2019-02-10T07:34:28.935Z,2.60
2019-02-10T07:37:55.285Z,2.27
2019-02-10T07:41:39.412Z,2.30
2019-02-10T07:45:06.171Z,2.40
2019-02-10T07:48:43.633Z,2.20
2019-02-10T07:52:35.933Z,2.20
2019-02-10T07:56:06.272Z,2.00
2019-02-10T07:59:36.471Z,1.80
2019-02-10T08:03:20.742Z,1.53
2019-02-10T08:06:44.036Z,1.73
2019-02-10T08:10:25.717Z,4.73
2019-02-10T08:14:09.754Z,5.70
2019-02-10T08:17:35.880Z,3.40
2019-02-10T08:21:23.220Z,3.40
2019-02-10T08:24:55.287Z,2.80
2019-02-10T08:28:43.798Z,2.60
2019-02-10T08:32:17.576Z,2.40
2019-02-10T08:35:52.349Z,2.80
2019-02-10T08:39:09.918Z,2.57
2019-02-10T08:42:23.225Z,2.50
2019-02-10T08:45:58.443Z,2.70
2019-02-10T08:50:02.118Z,2.40
2019-02-10T08:53:19.021Z,2.77
2019-02-10T08:56:23.297Z,2.63
2019-02-10T08:59:27.200Z,3.00
2019-02-10T09:02:31.337Z,2.33
2019-02-10T09:05:35.247Z,2.43
2019-02-10T09:08:39.633Z,2.10
2019-02-10T09:11:43.466Z,2.30
2019-02-10T09:14:47.112Z,2.40
2019-02-10T09:17:51.190Z,3.93
2019-02-10T09:20:54.760Z,5.33
2019-02-10T09:23:58.666Z,5.13
2019-02-10T09:27:02.267Z,11.90
2019-02-10T09:30:06.746Z,10.97
2019-02-10T09:33:10.599Z,11.63
2019-02-10T09:36:14.171Z,12.27
2019-02-10T09:39:17.994Z,12.50
2019-02-10T09:42:22.163Z,11.90
2019-02-10T09:45:25.761Z,12.27
2019-02-10T09:48:29.692Z,11.13
2019-02-10T09:51:33.353Z,11.87
2019-02-10T09:54:37.281Z,10.30
2019-02-10T09:57:40.858Z,10.43
2019-02-10T10:00:44.869Z,11.00
2019-02-10T10:03:49.252Z,9.37
2019-02-10T10:06:53.263Z,17.47
2019-02-10T10:09:56.837Z,11.03
2019-02-10T10:13:00.425Z,11.57
2019-02-10T10:16:04.246Z,10.70
2019-02-10T10:19:08.102Z,10.63
2019-02-10T10:22:11.734Z,10.80
2019-02-10T10:25:15.311Z,9.80
2019-02-10T10:28:18.915Z,9.20
2019-02-10T10:31:22.826Z,9.40
2019-02-10T10:34:26.733Z,9.43
2019-02-10T10:37:30.627Z,8.87
2019-02-10T10:40:34.487Z,9.73
2019-02-10T10:43:38.070Z,11.60
2019-02-10T10:46:41.666Z,10.43
2019-02-10T10:49:45.237Z,10.03
2019-02-10T10:52:48.858Z,10.40
2019-02-10T10:55:53.064Z,9.33
2019-02-10T10:58:57.078Z,9.23
2019-02-10T11:02:01.150Z,8.27
2019-02-10T11:05:04.977Z,7.97
2019-02-10T11:08:08.594Z,8.93
2019-02-10T11:11:12.188Z,8.53
2019-02-10T11:14:16.009Z,8.70
2019-02-10T11:17:19.674Z,8.10
2019-02-10T11:20:23.287Z,7.17
2019-02-10T11:23:26.985Z,6.73
2019-02-10T11:26:30.565Z,7.40
2019-02-10T11:29:34.163Z,7.57
2019-02-10T11:32:38.023Z,6.97
2019-02-10T11:35:41.598Z,6.97
2019-02-10T11:38:45.231Z,6.77
2019-02-10T11:41:49.083Z,6.10
2019-02-10T11:44:52.952Z,6.23
2019-02-10T11:47:56.951Z,5.63
2019-02-10T11:51:01.539Z,5.67
2019-02-10T11:54:06.078Z,5.70
2019-02-10T11:57:10.733Z,5.70
2019-02-10T12:00:14.323Z,5.90
2019-02-10T12:03:17.925Z,5.43
2019-02-10T12:06:21.805Z,5.80
2019-02-10T12:09:25.400Z,5.17
2019-02-10T12:12:29.228Z,4.97
2019-02-10T12:15:32.872Z,5.13
2019-02-10T12:18:36.447Z,4.73
2019-02-10T12:21:40.028Z,4.53
2019-02-10T12:24:43.637Z,4.47
2019-02-10T12:27:47.304Z,4.37
2019-02-10T12:30:51.170Z,4.23
2019-02-10T12:33:55.124Z,4.57
2019-02-10T12:36:59.393Z,4.07
2019-02-10T12:40:02.995Z,4.17
2019-02-10T12:43:06.638Z,4.37
2019-02-10T12:46:11.016Z,4.97
2019-02-10T12:49:14.901Z,3.67
2019-02-10T12:52:18.675Z,5.00
2019-02-10T12:55:22.277Z,5.90
2019-02-10T12:58:25.916Z,5.30
2019-02-10T13:01:29.893Z,4.60
2019-02-10T13:04:34.080Z,4.37
2019-02-10T13:07:37.698Z,4.50
2019-02-10T13:10:41.346Z,5.03
2019-02-10T13:13:45.039Z,4.30
2019-02-10T13:16:48.730Z,4.17
2019-02-10T13:19:52.395Z,4.20
2019-02-10T13:22:56.531Z,4.80
2019-02-10T13:26:00.464Z,4.23
2019-02-10T13:29:04.114Z,4.23
2019-02-10T13:32:08.171Z,4.10
2019-02-10T13:35:12.287Z,4.10
2019-02-10T13:38:16.006Z,4.10
2019-02-10T13:41:19.895Z,3.67
2019-02-10T13:44:23.464Z,3.20
2019-02-10T13:47:27.312Z,3.60
2019-02-10T13:50:31.422Z,3.80
2019-02-10T13:53:35.528Z,3.50
2019-02-10T13:56:39.454Z,3.57
2019-02-10T13:59:43.351Z,3.70
2019-02-10T14:02:46.971Z,3.80
2019-02-10T14:05:50.588Z,6.03
2019-02-10T14:08:54.176Z,8.30
2019-02-10T14:11:57.761Z,10.33
2019-02-10T14:15:01.629Z,12.73
2019-02-10T14:18:05.521Z,13.50
2019-02-10T14:21:09.101Z,14.53
2019-02-10T14:24:12.957Z,15.23
2019-02-10T14:27:16.807Z,14.10
2019-02-10T14:30:20.426Z,14.07
2019-02-10T14:33:24.066Z,13.43
2019-02-10T14:36:27.651Z,14.27
2019-02-10T14:39:31.243Z,12.47
2019-02-10T14:42:34.904Z,13.20
2019-02-10T14:45:38.770Z,11.07
2019-02-10T14:48:44.362Z,11.00
2019-02-10T14:51:48.216Z,5.40
2019-02-10T14:54:52.432Z,8.30
2019-02-10T14:57:56.966Z,7.83
2019-02-10T15:01:01.034Z,7.03
2019-02-10T15:04:04.918Z,8.07
2019-02-10T15:07:08.550Z,8.10
2019-02-10T15:10:12.962Z,6.97
2019-02-10T15:13:16.531Z,6.97
2019-02-10T15:16:20.093Z,8.43
2019-02-10T15:19:23.705Z,6.70
2019-02-10T15:22:27.536Z,7.50
2019-02-10T15:25:31.957Z,7.10
2019-02-10T15:28:35.624Z,6.37
2019-02-10T15:31:39.221Z,6.07
2019-02-10T15:34:42.800Z,6.20
2019-02-10T15:37:46.618Z,5.80
2019-02-10T15:40:50.374Z,5.73
2019-02-10T15:43:53.939Z,6.13
2019-02-10T15:46:57.890Z,6.20
2019-02-10T15:50:03.693Z,5.67
2019-02-10T15:53:07.040Z,5.77
2019-02-10T15:56:10.637Z,5.10
2019-02-10T15:59:14.196Z,4.90
2019-02-10T16:02:17.793Z,5.03
2019-02-10T16:05:21.535Z,4.77
2019-02-10T16:08:25.788Z,5.47
2019-02-10T16:11:29.357Z,4.57
2019-02-10T16:14:32.918Z,4.33
2019-02-10T16:17:36.569Z,5.20
2019-02-10T16:20:40.161Z,4.60
2019-02-10T16:23:44.064Z,4.80
2019-02-10T16:26:47.744Z,5.03
2019-02-10T16:29:51.405Z,4.37
2019-02-10T16:32:55.043Z,4.43
2019-02-10T16:35:58.623Z,4.63
2019-02-10T16:39:02.257Z,3.53
2019-02-10T16:42:05.826Z,4.23
2019-02-10T16:45:09.919Z,4.37
2019-02-10T16:48:13.537Z,3.40
2019-02-10T16:51:17.122Z,3.37
2019-02-10T16:54:21.054Z,3.83
2019-02-10T16:57:24.626Z,3.60
2019-02-10T17:00:28.194Z,3.67
2019-02-10T17:03:32.087Z,3.93
2019-02-10T17:06:35.944Z,4.23
2019-02-10T17:09:39.563Z,4.93
2019-02-10T17:12:43.460Z,4.50
2019-02-10T17:15:47.032Z,4.03
2019-02-10T17:18:51.425Z,3.93
2019-02-10T17:21:55.235Z,4.40
2019-02-10T17:24:58.815Z,4.00
2019-02-10T17:28:02.373Z,3.63
2019-02-10T17:31:05.938Z,3.53
2019-02-10T17:34:09.507Z,3.20
2019-02-10T17:37:14.258Z,3.87
2019-02-10T17:40:24.831Z,3.03
2019-02-10T17:43:28.582Z,3.40
2019-02-10T17:46:32.163Z,4.17
2019-02-10T17:49:35.720Z,3.47
2019-02-10T17:52:39.804Z,3.67
2019-02-10T17:55:43.855Z,3.80
2019-02-10T17:58:47.419Z,3.43
2019-02-10T18:01:51.208Z,2.77
2019-02-10T18:04:54.756Z,2.80
2019-02-10T18:07:58.318Z,2.67
2019-02-10T18:11:01.873Z,2.70
2019-02-10T18:14:16.675Z,3.00
2019-02-10T18:17:38.062Z,2.60
2019-02-10T18:20:55.075Z,2.40
2019-02-10T18:24:07.408Z,2.60
2019-02-10T18:27:18.999Z,2.50
2019-02-10T18:30:47.425Z,2.40
2019-02-10T18:33:59.799Z,2.80
2019-02-10T18:37:21.395Z,2.10
2019-02-10T18:40:32.607Z,2.03
2019-02-10T18:43:43.959Z,2.10
2019-02-10T18:47:09.623Z,2.20
2019-02-10T18:50:41.310Z,1.83
2019-02-10T18:54:03.970Z,1.97
2019-02-10T18:57:14.693Z,2.13
2019-02-10T19:00:34.055Z,1.80
2019-02-10T19:03:58.967Z,2.37
2019-02-10T19:07:36.953Z,2.23
2019-02-10T19:10:56.250Z,2.10
2019-02-10T19:14:17.874Z,5.27
2019-02-10T19:17:35.843Z,11.37
2019-02-10T19:20:54.385Z,42.03
2019-02-10T19:24:03.929Z,32.23
2019-02-10T19:27:32.922Z,36.23
2019-02-10T19:30:49.139Z,37.87
2019-02-10T19:34:02.450Z,34.97
2019-02-10T19:37:23.374Z,33.93
2019-02-10T19:40:46.303Z,11.90
2019-02-10T19:44:05.755Z,17.67
2019-02-10T19:47:20.858Z,49.20
2019-02-10T19:50:43.419Z,50.37
2019-02-10T19:53:53.785Z,49.67
2019-02-10T19:57:10.602Z,49.43
2019-02-10T20:00:39.087Z,48.77
2019-02-10T20:03:53.581Z,45.20
2019-02-10T20:07:10.472Z,46.37
2019-02-10T20:10:26.165Z,43.80
2019-02-10T20:13:38.687Z,43.70
2019-02-10T20:17:04.459Z,42.17
2019-02-10T20:20:26.895Z,41.03
2019-02-10T20:23:48.606Z,39.67
2019-02-10T20:27:03.317Z,37.97
2019-02-10T20:30:18.291Z,35.17
2019-02-10T20:33:29.639Z,31.30
2019-02-10T20:36:52.793Z,27.63
2019-02-10T20:40:07.678Z,28.20
2019-02-10T20:43:33.906Z,27.23
2019-02-10T20:46:48.305Z,26.23
2019-02-10T20:50:14.040Z,25.27
2019-02-10T20:53:23.917Z,25.33
2019-02-10T20:56:48.801Z,24.40
2019-02-10T21:00:02.818Z,25.23
2019-02-10T21:03:14.846Z,24.00
2019-02-10T21:06:46.050Z,24.17
2019-02-10T21:09:59.479Z,23.10
2019-02-10T21:13:22.440Z,24.17
2019-02-10T21:16:47.400Z,23.97
2019-02-10T21:20:08.751Z,21.17
2019-02-10T21:23:24.270Z,21.63
2019-02-10T21:26:50.519Z,21.50
2019-02-10T21:30:04.568Z,71.80
2019-02-10T21:33:39.059Z,65.53
2019-02-10T21:37:10.988Z,50.20
2019-02-10T21:40:31.923Z,71.43
2019-02-10T21:43:42.157Z,66.30
2019-02-10T21:46:57.989Z,63.60
2019-02-10T21:50:02.291Z,55.60
2019-02-10T21:53:06.156Z,53.83
2019-02-10T21:56:09.948Z,51.53
2019-02-10T21:59:16.039Z,50.13
2019-02-10T22:02:19.621Z,47.73
2019-02-10T22:05:23.194Z,22.20
2019-02-10T22:08:26.756Z,20.13
2019-02-10T22:11:30.325Z,91.53
2019-02-10T22:14:34.823Z,49.20
2019-02-10T22:17:38.732Z,59.20
2019-02-10T22:20:42.568Z,58.97
2019-02-10T22:23:46.533Z,56.13
2019-02-10T22:26:50.469Z,51.80
2019-02-10T22:29:53.986Z,50.27
2019-02-10T22:32:57.571Z,49.00
2019-02-10T22:36:01.126Z,48.47
2019-02-10T22:39:05.338Z,46.47
2019-02-10T22:42:09.208Z,44.20
2019-02-10T22:45:12.945Z,48.27
2019-02-10T22:48:16.535Z,45.23
2019-02-10T22:51:20.095Z,46.17
2019-02-10T22:54:23.664Z,42.17
2019-02-10T22:57:27.223Z,40.93
2019-02-10T23:00:47.357Z,40.50
2019-02-10T23:03:50.942Z,39.90
2019-02-10T23:06:54.758Z,37.63
2019-02-10T23:09:58.334Z,36.53
2019-02-10T23:13:01.900Z,34.63
2019-02-10T23:16:05.457Z,34.70
2019-02-10T23:19:09.082Z,33.93
2019-02-10T23:22:12.654Z,34.20
2019-02-10T23:25:16.562Z,33.27
2019-02-10T23:28:20.134Z,31.00
2019-02-10T23:31:24.259Z,30.07
2019-02-10T23:34:27.831Z,30.30
2019-02-10T23:37:31.406Z,29.33
2019-02-10T23:40:35.303Z,28.93
2019-02-10T23:43:39.708Z,28.60
2019-02-10T23:46:43.833Z,27.20
2019-02-10T23:49:47.397Z,28.00
2019-02-10T23:52:50.959Z,27.33
2019-02-10T23:55:54.522Z,26.53
2019-02-10T23:58:58.363Z,25.33
